Time;durP1;ratioP1;P1;durP2;ratioP2;P2;SDS_P1;SDS_P2;PMS_P1;PMS_P2;Temp;Humidity;BMP_temperature;BMP_pressure;BME280_temperature;BME280_humidity;BME280_pressure;Samples;Min_cycle;Max_cycle;Signal;HPM_P1;HPM_P2
2024/02/17 00:00:13;;;;;;;4.28;1.52;;;;;;;;;;2059473;28;20031;-46
2024/02/17 00:01:15;;;;;;;2.08;1.35;;;;;;;;;;2057175;28;20097;-47
2024/02/17 00:02:16;;;;;;;2.72;1.80;;;;;;;;;;2057696;28;20019;-46
2024/02/17 00:03:22;;;;;;;3.17;1.40;;;;;;;;;;2059535;28;20011;-46
2024/02/17 00:04:23;;;;;;;2.50;1.33;;;;;;;;;;2057552;28;20035;-45
2024/02/17 00:05:24;;;;;;;2.92;1.60;;;;;;;;;;2057022;28;20026;-47
2024/02/17 00:06:26;;;;;;;3.08;1.40;;;;;;;;;;2052464;28;20051;-45
2024/02/17 00:07:27;;;;;;;1.70;1.15;;;;;;;;;;2056320;28;20470;-45
2024/02/17 00:08:28;;;;;;;4.22;1.10;;;;;;;;;;2057777;28;20131;-46
2024/02/17 00:09:30;;;;;;;2.83;1.30;;;;;;;;;;2059255;28;20045;-47
2024/02/17 00:10:31;;;;;;;5.10;1.73;;;;;;;;;;2057321;28;20117;-47
2024/02/17 00:11:32;;;;;;;3.05;1.20;;;;;;;;;;2048933;28;20035;-47
2024/02/17 00:12:34;;;;;;;3.20;1.70;;;;;;;;;;2056664;28;20010;-45
2024/02/17 00:13:36;;;;;;;3.10;1.45;;;;;;;;;;2068755;28;20033;-46
2024/02/17 00:14:37;;;;;;;2.58;1.40;;;;;;;;;;2054165;28;20027;-45
2024/02/17 00:15:39;;;;;;;2.83;1.55;;;;;;;;;;2059870;28;20034;-46
2024/02/17 00:16:41;;;;;;;5.07;1.42;;;;;;;;;;2057503;28;20034;-46
2024/02/17 00:17:42;;;;;;;3.42;1.70;;;;;;;;;;2057808;28;20027;-46
2024/02/17 00:18:44;;;;;;;5.00;1.77;;;;;;;;;;2062771;28;20027;-45
2024/02/17 00:19:48;;;;;;;3.83;1.50;;;;;;;;;;2057334;28;20026;-46
2024/02/17 00:20:50;;;;;;;2.45;1.30;;;;;;;;;;2060151;28;20034;-46
2024/02/17 00:21:51;;;;;;;2.92;1.60;;;;;;;;;;2050223;28;20025;-45
2024/02/17 00:22:52;;;;;;;3.45;1.70;;;;;;;;;;2055143;28;20475;-45
2024/02/17 00:23:53;;;;;;;3.58;1.27;;;;;;;;;;2058188;28;20019;-44
2024/02/17 00:24:55;;;;;;;2.72;1.45;;;;;;;;;;2058376;28;20050;-44
2024/02/17 00:25:57;;;;;;;3.88;1.40;;;;;;;;;;2056384;28;20049;-44
2024/02/17 00:26:58;;;;;;;3.00;1.77;;;;;;;;;;2055540;28;20030;-46
2024/02/17 00:27:59;;;;;;;2.00;1.33;;;;;;;;;;2060408;28;20047;-48
2024/02/17 00:29:00;;;;;;;3.90;1.35;;;;;;;;;;2059301;28;20033;-51
2024/02/17 00:30:02;;;;;;;3.72;1.27;;;;;;;;;;2064122;28;20069;-50
2024/02/17 00:31:04;;;;;;;2.70;1.40;;;;;;;;;;2059087;28;20041;-50
2024/02/17 00:32:05;;;;;;;2.80;1.30;;;;;;;;;;2060661;28;20026;-50
2024/02/17 00:33:06;;;;;;;2.60;1.30;;;;;;;;;;2070454;28;20076;-49
2024/02/17 00:34:07;;;;;;;3.08;1.67;;;;;;;;;;2066613;28;20046;-51
2024/02/17 00:35:11;;;;;;;3.30;1.55;;;;;;;;;;2059286;28;20046;-48
2024/02/17 00:36:12;;;;;;;3.78;1.70;;;;;;;;;;2060125;28;20502;-49
2024/02/17 00:37:13;;;;;;;3.63;1.85;;;;;;;;;;2062696;28;20054;-51
2024/02/17 00:38:16;;;;;;;3.95;1.42;;;;;;;;;;2064038;28;20045;-51
2024/02/17 00:39:17;;;;;;;4.13;1.70;;;;;;;;;;2063533;28;20034;-51
2024/02/17 00:40:18;;;;;;;3.55;1.77;;;;;;;;;;2061302;28;20020;-50
2024/02/17 00:41:20;;;;;;;3.20;1.80;;;;;;;;;;2058530;28;20443;-50
2024/02/17 00:42:21;;;;;;;3.50;2.17;;;;;;;;;;2058368;28;20114;-51
2024/02/17 00:43:22;;;;;;;2.53;1.50;;;;;;;;;;2062106;28;20065;-50
2024/02/17 00:44:24;;;;;;;4.80;1.90;;;;;;;;;;2059221;28;20089;-49
2024/02/17 00:45:25;;;;;;;2.30;1.48;;;;;;;;;;2061735;28;20017;-50
2024/02/17 00:46:27;;;;;;;3.63;1.83;;;;;;;;;;2062677;28;20057;-50
2024/02/17 00:47:28;;;;;;;3.15;1.92;;;;;;;;;;2062274;28;20022;-51
2024/02/17 00:48:29;;;;;;;3.65;1.85;;;;;;;;;;2060658;28;20073;-46
2024/02/17 00:49:31;;;;;;;4.90;1.90;;;;;;;;;;2061204;28;20102;-51
2024/02/17 00:50:32;;;;;;;3.30;1.52;;;;;;;;;;2062096;28;20026;-48
2024/02/17 00:51:33;;;;;;;4.82;1.58;;;;;;;;;;2064270;28;20033;-49
2024/02/17 00:52:34;;;;;;;2.95;1.73;;;;;;;;;;2064509;28;20382;-50
2024/02/17 00:53:38;;;;;;;3.28;1.38;;;;;;;;;;2058401;28;20019;-50
2024/02/17 00:54:39;;;;;;;3.15;1.60;;;;;;;;;;2058426;28;20039;-47
2024/02/17 00:55:40;;;;;;;3.75;1.73;;;;;;;;;;2060759;28;20031;-48
2024/02/17 00:56:41;;;;;;;4.72;1.90;;;;;;;;;;2062282;28;20540;-50
2024/02/17 00:57:43;;;;;;;4.72;2.28;;;;;;;;;;2060736;28;20090;-49
2024/02/17 00:58:44;;;;;;;4.45;2.30;;;;;;;;;;2059219;28;20036;-50
2024/02/17 00:59:45;;;;;;;4.40;1.80;;;;;;;;;;2058959;28;20019;-49
2024/02/17 01:00:46;;;;;;;5.53;2.15;;;;;;;;;;2059235;28;20022;-50
2024/02/17 01:01:48;;;;;;;4.93;1.85;;;;;;;;;;2059146;28;20559;-51
2024/02/17 01:02:49;;;;;;;4.00;1.70;;;;;;;;;;2060174;28;20014;-50
2024/02/17 01:03:50;;;;;;;4.47;2.13;;;;;;;;;;2058622;28;20047;-47
2024/02/17 01:04:52;;;;;;;3.20;1.70;;;;;;;;;;2060629;28;20031;-49
2024/02/17 01:05:53;;;;;;;4.28;1.63;;;;;;;;;;2062941;28;20104;-49
2024/02/17 01:06:55;;;;;;;3.92;1.30;;;;;;;;;;2056428;28;20033;-51
2024/02/17 01:07:56;;;;;;;5.03;1.73;;;;;;;;;;2057040;28;20062;-50
2024/02/17 01:08:57;;;;;;;4.10;1.80;;;;;;;;;;2059265;28;20049;-49
2024/02/17 01:09:58;;;;;;;2.97;1.65;;;;;;;;;;2064589;28;20488;-51
2024/02/17 01:11:00;;;;;;;3.00;1.80;;;;;;;;;;2059278;28;20027;-49
2024/02/17 01:12:01;;;;;;;3.38;1.60;;;;;;;;;;2056866;28;20023;-46
2024/02/17 01:13:03;;;;;;;3.85;1.90;;;;;;;;;;2060842;28;20026;-50
2024/02/17 01:14:04;;;;;;;4.63;1.98;;;;;;;;;;2064408;28;20034;-48
2024/02/17 01:15:05;;;;;;;3.65;2.03;;;;;;;;;;2060773;28;20113;-49
2024/02/17 01:16:07;;;;;;;6.47;2.00;;;;;;;;;;2059430;28;20109;-51
2024/02/17 01:17:08;;;;;;;3.20;2.08;;;;;;;;;;2059549;28;20052;-49
2024/02/17 01:18:10;;;;;;;3.35;1.98;;;;;;;;;;2057970;28;20486;-49
2024/02/17 01:19:12;;;;;;;4.97;2.08;;;;;;;;;;2063165;28;20097;-47
2024/02/17 01:20:13;;;;;;;3.45;2.13;;;;;;;;;;2063709;28;20442;-49
2024/02/17 01:21:15;;;;;;;4.60;2.30;;;;;;;;;;2060148;28;20370;-50
2024/02/17 01:22:16;;;;;;;4.03;2.45;;;;;;;;;;2059122;28;20026;-49
2024/02/17 01:23:17;;;;;;;4.93;2.28;;;;;;;;;;2059314;28;20458;-50
2024/02/17 01:24:19;;;;;;;5.75;2.65;;;;;;;;;;2059766;28;20038;-51
2024/02/17 01:25:24;;;;;;;2.67;2.00;;;;;;;;;;2057239;28;20042;-49
2024/02/17 01:26:26;;;;;;;4.60;2.22;;;;;;;;;;2062829;28;20415;-49
2024/02/17 01:27:27;;;;;;;4.95;2.42;;;;;;;;;;2061851;28;20029;-51
2024/02/17 01:28:29;;;;;;;4.75;2.20;;;;;;;;;;2061468;28;20477;-49
2024/02/17 01:29:30;;;;;;;4.10;2.33;;;;;;;;;;2060598;28;20042;-49
2024/02/17 01:30:31;;;;;;;4.40;2.42;;;;;;;;;;2061998;28;20029;-51
2024/02/17 01:31:32;;;;;;;4.75;2.22;;;;;;;;;;2062155;28;20027;-46
2024/02/17 01:32:34;;;;;;;6.75;2.38;;;;;;;;;;2061667;28;20034;-48
2024/02/17 01:33:35;;;;;;;3.03;1.95;;;;;;;;;;2063054;28;20449;-49
2024/02/17 01:34:36;;;;;;;3.90;1.90;;;;;;;;;;2063014;28;20026;-49
2024/02/17 01:35:38;;;;;;;5.93;2.95;;;;;;;;;;2060151;28;20085;-49
2024/02/17 01:36:39;;;;;;;3.45;2.15;;;;;;;;;;2058755;28;20031;-51
2024/02/17 01:37:41;;;;;;;4.63;2.70;;;;;;;;;;2057320;28;20045;-51
2024/02/17 01:38:42;;;;;;;5.85;2.30;;;;;;;;;;2060433;28;20030;-50
2024/02/17 01:39:44;;;;;;;4.85;2.30;;;;;;;;;;2058997;28;20034;-46
2024/02/17 01:40:45;;;;;;;5.13;2.50;;;;;;;;;;2058405;28;20101;-50
2024/02/17 01:41:46;;;;;;;4.38;2.13;;;;;;;;;;2061503;28;20038;-49
2024/02/17 01:42:48;;;;;;;4.85;2.83;;;;;;;;;;2057688;28;20111;-49
2024/02/17 01:43:49;;;;;;;6.20;2.40;;;;;;;;;;2059381;28;20358;-50
2024/02/17 01:44:51;;;;;;;4.68;2.38;;;;;;;;;;2059641;28;20033;-49
2024/02/17 01:45:52;;;;;;;5.63;2.50;;;;;;;;;;2058471;28;20030;-51
2024/02/17 01:46:53;;;;;;;4.93;2.45;;;;;;;;;;2058409;28;20054;-48
2024/02/17 01:47:55;;;;;;;4.63;2.40;;;;;;;;;;2061274;28;20037;-48
2024/02/17 01:48:56;;;;;;;4.13;2.03;;;;;;;;;;2058307;28;20080;-49
2024/02/17 01:49:58;;;;;;;5.15;2.75;;;;;;;;;;2057709;28;20043;-49
2024/02/17 01:50:59;;;;;;;4.63;2.55;;;;;;;;;;2059600;28;20026;-50
2024/02/17 01:52:01;;;;;;;5.07;2.45;;;;;;;;;;2059910;28;20421;-51
2024/02/17 01:53:02;;;;;;;4.03;2.25;;;;;;;;;;2060541;28;20094;-51
2024/02/17 01:54:03;;;;;;;6.25;2.28;;;;;;;;;;2059139;28;20019;-50
2024/02/17 01:55:05;;;;;;;4.10;2.47;;;;;;;;;;2059592;28;20042;-50
2024/02/17 01:56:08;;;;;;;6.20;2.50;;;;;;;;;;2062175;28;20061;-52
2024/02/17 01:57:10;;;;;;;4.50;2.47;;;;;;;;;;2062388;28;20100;-53
2024/02/17 01:58:11;;;;;;;4.30;2.33;;;;;;;;;;2056599;28;20019;-51
2024/02/17 01:59:13;;;;;;;6.22;3.03;;;;;;;;;;2060488;28;20050;-53
2024/02/17 02:00:15;;;;;;;5.63;2.38;;;;;;;;;;2056757;28;20133;-48
2024/02/17 02:01:16;;;;;;;3.92;2.30;;;;;;;;;;2058416;28;20365;-52
2024/02/17 02:02:17;;;;;;;6.38;2.40;;;;;;;;;;2058731;28;20054;-53
2024/02/17 02:03:19;;;;;;;3.42;2.17;;;;;;;;;;2058722;28;20011;-52
2024/02/17 02:04:21;;;;;;;3.80;2.20;;;;;;;;;;2062305;28;20118;-51
2024/02/17 02:05:22;;;;;;;7.07;2.75;;;;;;;;;;2060075;28;20034;-53
2024/02/17 02:06:24;;;;;;;2.55;1.95;;;;;;;;;;2057355;28;20046;-52
2024/02/17 02:07:25;;;;;;;3.55;2.30;;;;;;;;;;2057638;28;20026;-50
2024/02/17 02:08:26;;;;;;;4.72;2.03;;;;;;;;;;2058743;28;20018;-52
2024/02/17 02:09:28;;;;;;;3.75;2.30;;;;;;;;;;2061458;28;20486;-50
2024/02/17 02:10:29;;;;;;;3.90;1.90;;;;;;;;;;2058387;28;20034;-50
2024/02/17 02:11:30;;;;;;;4.88;2.20;;;;;;;;;;2057180;28;20027;-50
2024/02/17 02:12:32;;;;;;;5.93;2.33;;;;;;;;;;2062680;28;20038;-50
2024/02/17 02:13:33;;;;;;;3.88;2.50;;;;;;;;;;2061639;28;20042;-49
2024/02/17 02:14:34;;;;;;;4.05;2.25;;;;;;;;;;2059928;28;20053;-51
2024/02/17 02:15:45;;;;;;;5.13;2.40;;;;;;;;;;2060831;28;20039;-47
2024/02/17 02:16:49;;;;;;;4.88;2.30;;;;;;;;;;2053589;28;20137;-48
2024/02/17 02:17:50;;;;;;;4.00;2.33;;;;;;;;;;2061655;28;20019;-50
2024/02/17 02:18:52;;;;;;;7.38;2.50;;;;;;;;;;2049212;28;20031;-51
2024/02/17 02:19:53;;;;;;;3.90;2.00;;;;;;;;;;2056891;28;20118;-53
2024/02/17 02:20:54;;;;;;;3.78;2.17;;;;;;;;;;2058666;28;20043;-52
2024/02/17 02:21:56;;;;;;;2.78;1.83;;;;;;;;;;2058996;28;20822;-47
2024/02/17 02:22:57;;;;;;;3.97;2.58;;;;;;;;;;2060394;28;20034;-51
2024/02/17 02:23:58;;;;;;;3.47;2.08;;;;;;;;;;2060619;28;20029;-52
2024/02/17 02:25:00;;;;;;;5.22;2.38;;;;;;;;;;2058186;28;20023;-48
2024/02/17 02:26:02;;;;;;;5.47;2.20;;;;;;;;;;2060098;28;20038;-52
2024/02/17 02:27:03;;;;;;;3.47;2.10;;;;;;;;;;2055232;28;20029;-52
2024/02/17 02:28:04;;;;;;;4.07;1.92;;;;;;;;;;2056814;28;20038;-52
2024/02/17 02:29:06;;;;;;;3.90;1.90;;;;;;;;;;2057311;28;20037;-52
2024/02/17 02:30:07;;;;;;;3.10;1.73;;;;;;;;;;2060018;28;20042;-50
2024/02/17 02:31:08;;;;;;;4.50;2.05;;;;;;;;;;2058330;28;20039;-52
2024/02/17 02:32:10;;;;;;;3.03;1.83;;;;;;;;;;2058160;28;20115;-51
2024/02/17 02:33:11;;;;;;;3.83;1.77;;;;;;;;;;2062865;28;20021;-52
2024/02/17 02:34:13;;;;;;;3.92;1.90;;;;;;;;;;2056341;28;20478;-52
2024/02/17 02:35:14;;;;;;;3.80;1.88;;;;;;;;;;2060014;28;20118;-51
2024/02/17 02:36:16;;;;;;;3.75;1.80;;;;;;;;;;2058167;28;20474;-51
2024/02/17 02:37:18;;;;;;;3.20;1.88;;;;;;;;;;2058812;28;20526;-53
2024/02/17 02:38:19;;;;;;;2.97;1.65;;;;;;;;;;2056580;28;20031;-50
2024/02/17 02:39:23;;;;;;;5.88;1.42;;;;;;;;;;2057936;28;20035;-52
2024/02/17 02:40:24;;;;;;;4.00;1.60;;;;;;;;;;2061302;28;20030;-52
2024/02/17 02:41:26;;;;;;;2.10;1.33;;;;;;;;;;2058156;28;20427;-53
2024/02/17 02:42:28;;;;;;;2.22;1.40;;;;;;;;;;2063105;28;20415;-50
2024/02/17 02:43:30;;;;;;;4.13;1.52;;;;;;;;;;2059425;28;20053;-51
2024/02/17 02:44:31;;;;;;;3.95;1.92;;;;;;;;;;2059940;28;20035;-53
2024/02/17 02:45:33;;;;;;;2.30;1.70;;;;;;;;;;2061195;28;20069;-53
2024/02/17 02:46:35;;;;;;;4.13;1.95;;;;;;;;;;2057098;28;20586;-52
2024/02/17 02:47:37;;;;;;;5.32;1.98;;;;;;;;;;2058100;28;20029;-51
2024/02/17 02:48:38;;;;;;;4.70;1.73;;;;;;;;;;2059564;28;20030;-47
2024/02/17 02:49:39;;;;;;;5.78;1.73;;;;;;;;;;2062067;28;20157;-52
2024/02/17 02:50:40;;;;;;;4.35;1.92;;;;;;;;;;2061799;28;20039;-52
2024/02/17 02:51:42;;;;;;;2.90;1.77;;;;;;;;;;2060377;28;20089;-52
2024/02/17 02:52:43;;;;;;;4.40;1.92;;;;;;;;;;2059550;28;20034;-54
2024/02/17 02:53:45;;;;;;;2.83;1.90;;;;;;;;;;2058118;28;20397;-52
2024/02/17 02:54:46;;;;;;;3.95;1.90;;;;;;;;;;2059083;28;20462;-51
2024/02/17 02:55:48;;;;;;;5.38;2.20;;;;;;;;;;2064435;28;20031;-50
2024/02/17 02:56:49;;;;;;;2.63;1.65;;;;;;;;;;2058606;28;20035;-52
2024/02/17 02:57:50;;;;;;;5.13;2.10;;;;;;;;;;2056268;28;20027;-52
2024/02/17 02:58:52;;;;;;;2.63;1.85;;;;;;;;;;2059578;28;20069;-52
2024/02/17 02:59:53;;;;;;;4.60;1.70;;;;;;;;;;2050385;28;20015;-53
2024/02/17 03:00:55;;;;;;;5.82;1.73;;;;;;;;;;2048445;28;20019;-53
2024/02/17 03:01:57;;;;;;;3.70;1.73;;;;;;;;;;2049988;28;20106;-53
2024/02/17 03:02:58;;;;;;;3.92;1.75;;;;;;;;;;2045728;28;20031;-51
2024/02/17 03:04:00;;;;;;;3.25;1.50;;;;;;;;;;2059766;28;20113;-53
2024/02/17 03:05:01;;;;;;;3.28;1.58;;;;;;;;;;2059411;28;20031;-53
2024/02/17 03:06:03;;;;;;;2.85;1.38;;;;;;;;;;2058456;28;20327;-52
2024/02/17 03:07:04;;;;;;;2.60;1.60;;;;;;;;;;2057668;28;20027;-52
2024/02/17 03:08:06;;;;;;;3.08;1.42;;;;;;;;;;2055727;28;20057;-51
2024/02/17 03:09:08;;;;;;;2.83;1.40;;;;;;;;;;2057311;28;20117;-53
2024/02/17 03:10:10;;;;;;;2.78;1.35;;;;;;;;;;2061912;28;20073;-46
2024/02/17 03:11:15;;;;;;;3.05;1.27;;;;;;;;;;2058678;28;20062;-53
2024/02/17 03:12:17;;;;;;;2.47;1.33;;;;;;;;;;2061229;28;20065;-53
2024/02/17 03:13:18;;;;;;;2.92;1.40;;;;;;;;;;2060749;28;20018;-52
2024/02/17 03:14:20;;;;;;;2.55;1.33;;;;;;;;;;2057577;28;20838;-47
2024/02/17 03:15:21;;;;;;;2.75;1.40;;;;;;;;;;2060670;28;20033;-52
2024/02/17 03:16:26;;;;;;;2.10;1.30;;;;;;;;;;2056748;28;20110;-53
2024/02/17 03:17:28;;;;;;;3.00;1.50;;;;;;;;;;2058810;28;20110;-53
2024/02/17 03:18:29;;;;;;;2.22;1.00;;;;;;;;;;2049341;28;20027;-53
2024/02/17 03:19:31;;;;;;;2.55;1.30;;;;;;;;;;2048387;28;20501;-53
2024/02/17 03:20:32;;;;;;;2.80;0.98;;;;;;;;;;2059638;28;20066;-52
2024/02/17 03:21:34;;;;;;;2.13;1.10;;;;;;;;;;2055540;28;20026;-54
2024/02/17 03:22:35;;;;;;;2.95;1.42;;;;;;;;;;2063397;28;20102;-53
2024/02/17 03:23:36;;;;;;;3.28;1.10;;;;;;;;;;2062736;28;20064;-52
2024/02/17 03:24:38;;;;;;;1.98;1.00;;;;;;;;;;2057258;28;20122;-54
2024/02/17 03:25:40;;;;;;;2.45;1.52;;;;;;;;;;2061775;28;20050;-51
2024/02/17 03:26:41;;;;;;;3.20;1.50;;;;;;;;;;2061062;28;20122;-52
2024/02/17 03:27:43;;;;;;;3.10;1.50;;;;;;;;;;2057048;28;20017;-53
2024/02/17 03:28:44;;;;;;;3.53;1.50;;;;;;;;;;2056220;28;20030;-53
2024/02/17 03:29:45;;;;;;;5.30;1.17;;;;;;;;;;2059635;28;20089;-53
2024/02/17 03:30:46;;;;;;;3.20;1.30;;;;;;;;;;2061563;28;20033;-52
2024/02/17 03:31:48;;;;;;;1.80;1.00;;;;;;;;;;2057134;28;20077;-53
2024/02/17 03:32:49;;;;;;;4.72;1.67;;;;;;;;;;2056159;28;20076;-54
2024/02/17 03:33:50;;;;;;;3.67;1.40;;;;;;;;;;2056475;28;20542;-51
2024/02/17 03:34:52;;;;;;;2.63;1.30;;;;;;;;;;2058698;28;20092;-51
2024/02/17 03:35:53;;;;;;;2.22;1.30;;;;;;;;;;2056944;28;20070;-52
2024/02/17 03:36:54;;;;;;;2.90;1.42;;;;;;;;;;2057680;28;20504;-52
2024/02/17 03:37:55;;;;;;;1.23;0.93;;;;;;;;;;2053432;28;20024;-52
2024/02/17 03:38:57;;;;;;;2.85;1.42;;;;;;;;;;2056049;28;20034;-53
2024/02/17 03:39:59;;;;;;;3.53;1.25;;;;;;;;;;2061939;28;20078;-52
2024/02/17 03:41:00;;;;;;;1.98;1.30;;;;;;;;;;2060450;28;20401;-53
2024/02/17 03:42:01;;;;;;;1.90;1.38;;;;;;;;;;2058688;28;20097;-53
2024/02/17 03:43:03;;;;;;;2.20;1.10;;;;;;;;;;2061194;28;20096;-53
2024/02/17 03:44:04;;;;;;;2.33;1.33;;;;;;;;;;2057568;28;20473;-53
2024/02/17 03:45:06;;;;;;;2.33;1.30;;;;;;;;;;2056663;28;20649;-48
2024/02/17 03:46:07;;;;;;;2.53;1.27;;;;;;;;;;2057268;28;20023;-51
2024/02/17 03:47:08;;;;;;;3.72;1.65;;;;;;;;;;2057378;28;20088;-51
2024/02/17 03:48:09;;;;;;;3.78;1.40;;;;;;;;;;2061081;28;20489;-50
2024/02/17 03:49:11;;;;;;;3.13;1.63;;;;;;;;;;2060651;28;20448;-48
2024/02/17 03:50:12;;;;;;;1.50;1.10;;;;;;;;;;2057563;28;20049;-48
2024/02/17 03:51:14;;;;;;;4.13;1.50;;;;;;;;;;2057513;28;20363;-51
2024/02/17 03:52:15;;;;;;;2.38;1.30;;;;;;;;;;2057811;28;20022;-51
2024/02/17 03:53:19;;;;;;;1.52;0.90;;;;;;;;;;2060988;28;20046;-50
2024/02/17 03:54:21;;;;;;;1.80;1.15;;;;;;;;;;2056789;28;20038;-50
2024/02/17 03:55:22;;;;;;;2.55;1.10;;;;;;;;;;2061820;28;20042;-49
2024/02/17 03:56:23;;;;;;;2.45;1.05;;;;;;;;;;2056899;28;20417;-49
2024/02/17 03:57:24;;;;;;;1.77;1.20;;;;;;;;;;2056925;28;20427;-49
2024/02/17 03:58:25;;;;;;;1.10;0.82;;;;;;;;;;2056989;28;20027;-50
2024/02/17 03:59:27;;;;;;;1.60;1.02;;;;;;;;;;2057064;28;20101;-47
2024/02/17 04:00:28;;;;;;;2.75;1.67;;;;;;;;;;2057290;28;20031;-50
2024/02/17 04:01:39;;;;;;;2.38;1.55;;;;;;;;;;2061396;28;20065;-49
2024/02/17 04:02:40;;;;;;;1.77;1.08;;;;;;;;;;2057822;28;20098;-50
2024/02/17 04:03:42;;;;;;;2.45;1.33;;;;;;;;;;2057582;28;20097;-49
2024/02/17 04:04:43;;;;;;;2.85;1.48;;;;;;;;;;2055683;28;20023;-49
2024/02/17 04:05:44;;;;;;;2.30;1.55;;;;;;;;;;2056196;28;20374;-50
2024/02/17 04:06:47;;;;;;;2.30;1.20;;;;;;;;;;2059386;28;20062;-51
2024/02/17 04:07:48;;;;;;;4.32;1.65;;;;;;;;;;2059995;28;20026;-50
2024/02/17 04:08:49;;;;;;;2.78;1.30;;;;;;;;;;2059329;28;20089;-48
2024/02/17 04:09:51;;;;;;;3.95;1.40;;;;;;;;;;2059161;28;20114;-50
2024/02/17 04:10:52;;;;;;;2.10;1.05;;;;;;;;;;2053857;28;20034;-50
2024/02/17 04:11:53;;;;;;;3.15;1.58;;;;;;;;;;2062161;28;20385;-50
2024/02/17 04:12:55;;;;;;;1.50;1.10;;;;;;;;;;2061854;28;20018;-49
2024/02/17 04:13:56;;;;;;;2.58;1.17;;;;;;;;;;2060853;28;20031;-55
2024/02/17 04:14:57;;;;;;;2.20;1.20;;;;;;;;;;2056681;28;20027;-51
2024/02/17 04:15:59;;;;;;;1.95;1.20;;;;;;;;;;2057333;28;20035;-50
2024/02/17 04:17:00;;;;;;;3.53;1.67;;;;;;;;;;2057844;28;20062;-51
2024/02/17 04:18:01;;;;;;;2.75;1.60;;;;;;;;;;2059623;28;20026;-50
2024/02/17 04:19:03;;;;;;;4.53;1.52;;;;;;;;;;2061011;28;20173;-48
2024/02/17 04:20:05;;;;;;;2.85;1.40;;;;;;;;;;2064703;28;20026;-49
2024/02/17 04:21:07;;;;;;;2.25;1.60;;;;;;;;;;2064249;28;20034;-49
2024/02/17 04:22:08;;;;;;;2.28;1.45;;;;;;;;;;2061927;28;20069;-49
2024/02/17 04:23:09;;;;;;;2.58;1.25;;;;;;;;;;2057921;28;20030;-51
2024/02/17 04:24:11;;;;;;;2.22;1.33;;;;;;;;;;2056330;28;20062;-50
2024/02/17 04:25:12;;;;;;;3.00;1.58;;;;;;;;;;2058458;28;20120;-49
2024/02/17 04:26:13;;;;;;;4.80;1.63;;;;;;;;;;2058050;28;20474;-49
2024/02/17 04:27:15;;;;;;;2.22;1.35;;;;;;;;;;2056596;28;20027;-51
2024/02/17 04:28:17;;;;;;;3.67;1.45;;;;;;;;;;2061892;28;20097;-51
2024/02/17 04:29:19;;;;;;;2.15;1.48;;;;;;;;;;2056448;28;20022;-49
2024/02/17 04:30:21;;;;;;;3.78;1.90;;;;;;;;;;2059095;28;20019;-50
2024/02/17 04:31:22;;;;;;;2.13;1.38;;;;;;;;;;2061649;28;20034;-50
2024/02/17 04:32:24;;;;;;;3.60;1.83;;;;;;;;;;2057738;28;20054;-50
2024/02/17 04:33:25;;;;;;;2.30;1.35;;;;;;;;;;2056913;28;20074;-51
2024/02/17 04:34:26;;;;;;;1.85;1.30;;;;;;;;;;2061493;28;20458;-48
2024/02/17 04:35:28;;;;;;;2.35;1.40;;;;;;;;;;2060318;28;20031;-50
2024/02/17 04:36:29;;;;;;;2.75;1.67;;;;;;;;;;2059075;28;20142;-49
2024/02/17 04:37:30;;;;;;;2.67;1.30;;;;;;;;;;2058467;28;20504;-50
2024/02/17 04:38:32;;;;;;;3.63;1.40;;;;;;;;;;2058022;28;20026;-50
2024/02/17 04:39:33;;;;;;;2.45;1.25;;;;;;;;;;2060932;28;20496;-48
2024/02/17 04:40:35;;;;;;;4.35;1.50;;;;;;;;;;2059099;28;20513;-49
2024/02/17 04:41:36;;;;;;;2.55;1.15;;;;;;;;;;2061164;28;20026;-45
2024/02/17 04:42:37;;;;;;;3.08;1.10;;;;;;;;;;2061087;28;20026;-50
2024/02/17 04:43:39;;;;;;;3.05;1.30;;;;;;;;;;2057975;28;20022;-50
2024/02/17 04:44:40;;;;;;;2.35;1.30;;;;;;;;;;2062426;28;20026;-48
2024/02/17 04:45:41;;;;;;;1.75;1.23;;;;;;;;;;2057366;28;20065;-49
2024/02/17 04:46:42;;;;;;;2.30;1.20;;;;;;;;;;2052555;28;20011;-49
2024/02/17 04:47:44;;;;;;;2.70;1.20;;;;;;;;;;2062081;28;20030;-50
2024/02/17 04:48:45;;;;;;;2.47;1.45;;;;;;;;;;2057389;28;20038;-50
2024/02/17 04:49:46;;;;;;;2.35;1.30;;;;;;;;;;2060417;28;20031;-45
2024/02/17 04:50:48;;;;;;;2.28;1.15;;;;;;;;;;2059267;28;20558;-49
2024/02/17 04:51:49;;;;;;;2.20;1.10;;;;;;;;;;2055212;28;20073;-48
2024/02/17 04:52:50;;;;;;;2.53;1.40;;;;;;;;;;2059889;28;20026;-50
2024/02/17 04:53:52;;;;;;;2.13;1.40;;;;;;;;;;2061747;28;20030;-50
2024/02/17 04:54:53;;;;;;;2.13;1.10;;;;;;;;;;2059331;28;20039;-49
2024/02/17 04:55:54;;;;;;;2.13;1.23;;;;;;;;;;2060562;28;20061;-49
2024/02/17 04:56:56;;;;;;;2.78;1.27;;;;;;;;;;2056554;28;20046;-50
2024/02/17 04:57:58;;;;;;;2.72;1.20;;;;;;;;;;2054456;28;20050;-45
2024/02/17 04:59:00;;;;;;;5.47;1.52;;;;;;;;;;2057402;28;20031;-45
2024/02/17 05:00:02;;;;;;;1.98;1.30;;;;;;;;;;2057261;28;20094;-45
2024/02/17 05:01:05;;;;;;;2.10;1.42;;;;;;;;;;2057746;28;20030;-45
2024/02/17 05:02:06;;;;;;;2.17;0.95;;;;;;;;;;2059674;28;20091;-47
2024/02/17 05:03:07;;;;;;;2.95;1.20;;;;;;;;;;2060918;28;20890;-46
2024/02/17 05:04:09;;;;;;;2.55;0.98;;;;;;;;;;2058897;28;20453;-46
2024/02/17 05:05:10;;;;;;;1.60;1.00;;;;;;;;;;2058894;28;20069;-47
2024/02/17 05:06:15;;;;;;;5.28;1.10;;;;;;;;;;2061747;28;20106;-47
2024/02/17 05:07:16;;;;;;;2.10;1.27;;;;;;;;;;2055010;28;20026;-46
2024/02/17 05:08:17;;;;;;;1.85;1.05;;;;;;;;;;2061774;28;20493;-46
2024/02/17 05:09:19;;;;;;;1.75;1.00;;;;;;;;;;2061598;28;20987;-47
2024/02/17 05:10:20;;;;;;;4.07;1.45;;;;;;;;;;2064740;28;20245;-46
2024/02/17 05:11:22;;;;;;;1.35;0.85;;;;;;;;;;2063743;28;20033;-46
2024/02/17 05:12:23;;;;;;;1.30;0.90;;;;;;;;;;2058626;28;20015;-46
2024/02/17 05:13:25;;;;;;;1.95;1.20;;;;;;;;;;2063238;28;20094;-46
2024/02/17 05:14:27;;;;;;;1.40;1.00;;;;;;;;;;2061049;28;20019;-46
2024/02/17 05:15:28;;;;;;;2.78;1.38;;;;;;;;;;2057503;28;20042;-45
2024/02/17 05:16:29;;;;;;;2.28;1.15;;;;;;;;;;2057994;28;20125;-47
2024/02/17 05:17:31;;;;;;;3.17;1.23;;;;;;;;;;2061341;28;20031;-45
2024/02/17 05:18:32;;;;;;;1.73;1.05;;;;;;;;;;2058147;28;20023;-45
2024/02/17 05:19:34;;;;;;;1.65;1.20;;;;;;;;;;2059469;28;20454;-45
2024/02/17 05:20:35;;;;;;;2.03;1.15;;;;;;;;;;2059473;28;20023;-45
2024/02/17 05:21:36;;;;;;;1.88;1.00;;;;;;;;;;2058430;28;20093;-45
2024/02/17 05:22:37;;;;;;;2.75;1.13;;;;;;;;;;2056311;28;20030;-45
2024/02/17 05:23:39;;;;;;;1.98;1.50;;;;;;;;;;2062762;28;20018;-45
2024/02/17 05:24:44;;;;;;;1.65;0.98;;;;;;;;;;2060398;28;20011;-48
2024/02/17 05:25:45;;;;;;;1.70;1.30;;;;;;;;;;2056126;28;20077;-45
2024/02/17 05:26:46;;;;;;;2.45;1.40;;;;;;;;;;2067784;28;20408;-45
2024/02/17 05:27:47;;;;;;;2.33;1.27;;;;;;;;;;2059548;28;20041;-45
2024/02/17 05:28:49;;;;;;;2.42;1.30;;;;;;;;;;2062619;28;20022;-45
2024/02/17 05:29:50;;;;;;;1.77;1.00;;;;;;;;;;2063077;28;20033;-47
2024/02/17 05:30:53;;;;;;;2.55;1.45;;;;;;;;;;2058286;28;20026;-45
2024/02/17 05:31:54;;;;;;;2.67;1.45;;;;;;;;;;2062183;28;20110;-45
2024/02/17 05:32:56;;;;;;;2.38;1.20;;;;;;;;;;2063522;28;20034;-45
2024/02/17 05:33:57;;;;;;;2.30;1.48;;;;;;;;;;2058859;28;20034;-45
2024/02/17 05:34:58;;;;;;;3.05;1.40;;;;;;;;;;2062049;28;20679;-46
2024/02/17 05:36:00;;;;;;;2.30;1.40;;;;;;;;;;2057647;28;20041;-46
2024/02/17 05:37:04;;;;;;;3.80;1.80;;;;;;;;;;2057533;28;20055;-46
2024/02/17 05:38:08;;;;;;;2.90;1.50;;;;;;;;;;2053612;28;20078;-52
2024/02/17 05:39:10;;;;;;;3.30;1.70;;;;;;;;;;2058552;28;20019;-53
2024/02/17 05:40:12;;;;;;;1.92;1.25;;;;;;;;;;2060152;28;20026;-53
2024/02/17 05:41:13;;;;;;;4.15;1.58;;;;;;;;;;2062331;28;20161;-51
2024/02/17 05:42:14;;;;;;;3.40;1.75;;;;;;;;;;2061877;28;20478;-51
2024/02/17 05:43:15;;;;;;;2.88;1.58;;;;;;;;;;2060592;28;20061;-51
2024/02/17 05:44:17;;;;;;;3.78;1.80;;;;;;;;;;2058335;28;20107;-49
2024/02/17 05:45:18;;;;;;;2.53;1.48;;;;;;;;;;2056590;28;20023;-49
2024/02/17 05:46:19;;;;;;;4.35;1.73;;;;;;;;;;2057395;28;20019;-49
2024/02/17 05:47:20;;;;;;;3.08;1.33;;;;;;;;;;2057398;28;20513;-49
2024/02/17 05:48:22;;;;;;;2.78;1.58;;;;;;;;;;2055331;28;20023;-53
2024/02/17 05:49:23;;;;;;;2.50;1.67;;;;;;;;;;2064374;28;20112;-52
2024/02/17 05:50:24;;;;;;;2.60;1.60;;;;;;;;;;2058164;28;20031;-52
2024/02/17 05:51:26;;;;;;;4.35;1.75;;;;;;;;;;2057162;28;20053;-50
2024/02/17 05:52:28;;;;;;;3.10;1.33;;;;;;;;;;2057443;28;20096;-49
2024/02/17 05:53:29;;;;;;;2.13;1.40;;;;;;;;;;2060113;28;20053;-49
2024/02/17 05:54:31;;;;;;;2.45;1.50;;;;;;;;;;2061547;28;20045;-51
2024/02/17 05:55:32;;;;;;;3.00;1.50;;;;;;;;;;2059116;28;20051;-49
2024/02/17 05:56:33;;;;;;;3.13;1.35;;;;;;;;;;2060271;28;20026;-50
2024/02/17 05:57:34;;;;;;;3.38;1.60;;;;;;;;;;2060210;28;20434;-49
2024/02/17 05:58:36;;;;;;;2.88;1.67;;;;;;;;;;2055922;28;20421;-49
2024/02/17 05:59:37;;;;;;;1.92;1.45;;;;;;;;;;2060792;28;20062;-49
2024/02/17 06:00:39;;;;;;;4.68;1.95;;;;;;;;;;2056289;28;20050;-49
2024/02/17 06:01:41;;;;;;;4.03;1.83;;;;;;;;;;2060137;28;20034;-49
2024/02/17 06:02:42;;;;;;;5.47;2.22;;;;;;;;;;2052505;28;20560;-47
2024/02/17 06:03:43;;;;;;;4.80;2.10;;;;;;;;;;2055792;28;20363;-48
2024/02/17 06:04:44;;;;;;;4.05;1.70;;;;;;;;;;2056633;28;20071;-47
2024/02/17 06:05:46;;;;;;;3.42;1.60;;;;;;;;;;2063055;28;20087;-47
2024/02/17 06:06:47;;;;;;;4.38;1.67;;;;;;;;;;2055557;28;20035;-50
2024/02/17 06:07:48;;;;;;;5.30;1.65;;;;;;;;;;2056213;28;20029;-50
2024/02/17 06:08:49;;;;;;;2.17;1.38;;;;;;;;;;2055880;28;20387;-50